Terminal Aerodrome Forecast
Issued by NWS

Home | Current Version | Previous Version | Text Only | Print | Product List | Glossary On
Versions: 1 2 3 4 5 6 7 8 9 10 11 12 13 14 15 16 17
000
FTUS42 KTBW 272342
TAFLAL
TAF
KLAL 272342Z 2800/2824 34007KT P6SM VCSH SCT030 BKN080
     FM280300 VRB03KT P6SM VCSH SCT025 BKN080
     FM281200 05004KT P6SM -RA VCTS SCT010CB BKN025 OVC080
      TEMPO 2812/2816 3SM TSRA BKN010CB
     FM281600 08007KT P6SM -RA VCTS SCT010CB BKN025 OVC080
     FM281900 VRB05KT P6SM VCTS SCT010CB BKN025 OVC080
      AMD NOT SKED 2802/2812=

USA.gov is the U.S. government's official web portal to all federal, state and local government web resources and services.